Time;durP1;ratioP1;P1;durP2;ratioP2;P2;SDS_P1;SDS_P2;PMS_P1;PMS_P2;Temp;Humidity;BMP_temperature;BMP_pressure;BME280_temperature;BME280_humidity;BME280_pressure;Samples;Min_cycle;Max_cycle;Signal;HPM_P1;HPM_P2
2023/12/10 00:02:17;;;;;;;0.80;0.80;;;9.00;51.80;;;;;;10443689;28;20229;-78
2023/12/10 00:07:20;;;;;;;1.00;1.00;;;9.00;51.80;;;;;;10447126;28;20228;-79
2023/12/10 00:12:25;;;;;;;0.60;0.60;;;9.10;51.60;;;;;;10437908;28;20244;-78
2023/12/10 00:17:29;;;;;;;0.60;0.60;;;9.10;51.90;;;;;;10439792;28;20605;-79
2023/12/10 00:22:32;;;;;;;0.60;0.60;;;9.20;51.90;;;;;;10442868;28;20255;-79
2023/12/10 00:27:37;;;;;;;0.70;0.60;;;9.20;52.00;;;;;;10443732;28;20324;-79
2023/12/10 00:32:40;;;;;;;0.50;0.50;;;9.30;52.10;;;;;;10443307;28;20224;-79
2023/12/10 00:37:43;;;;;;;0.70;0.70;;;9.40;51.70;;;;;;10442831;28;20355;-78
2023/12/10 00:42:48;;;;;;;1.60;0.70;;;9.40;51.20;;;;;;10442936;28;20336;-79
2023/12/10 00:47:51;;;;;;;1.40;0.60;;;9.50;51.30;;;;;;10437550;28;20292;-79
2023/12/10 00:52:55;;;;;;;1.70;0.90;;;9.50;50.90;;;;;;10441194;28;20240;-79
2023/12/10 00:57:59;;;;;;;0.97;0.70;;;9.50;51.20;;;;;;10445177;28;20247;-79
2023/12/10 01:03:05;;;;;;;1.33;0.70;;;9.50;51.50;;;;;;10450049;28;20707;-79
2023/12/10 01:08:08;;;;;;;2.03;0.80;;;9.60;51.10;;;;;;10443386;28;20236;-78
2023/12/10 01:13:12;;;;;;;1.40;0.77;;;9.60;51.00;;;;;;10442233;28;20323;-78
2023/12/10 01:18:16;;;;;;;0.53;0.53;;;9.70;51.10;;;;;;10440493;28;20276;-79
2023/12/10 01:23:19;;;;;;;1.20;0.80;;;9.70;50.80;;;;;;10442219;28;20287;-79
2023/12/10 01:28:24;;;;;;;0.97;0.90;;;9.70;50.60;;;;;;10442760;28;20312;-79
2023/12/10 01:33:27;;;;;;;2.20;1.10;;;9.70;50.60;;;;;;10445364;28;20245;-78
2023/12/10 01:38:31;;;;;;;1.50;0.93;;;9.70;50.40;;;;;;10440627;28;21025;-78
2023/12/10 01:43:36;;;;;;;3.03;1.00;;;9.70;50.30;;;;;;10445871;28;20229;-79
2023/12/10 01:48:40;;;;;;;1.80;0.83;;;9.70;50.50;;;;;;10444564;28;20229;-78
2023/12/10 01:53:44;;;;;;;2.93;1.20;;;9.70;50.30;;;;;;10433666;28;20711;-78
2023/12/10 01:58:49;;;;;;;2.23;0.80;;;9.70;50.30;;;;;;10438861;28;20233;-78
2023/12/10 02:03:52;;;;;;;3.93;0.90;;;9.70;50.20;;;;;;10435865;28;20731;-78
2023/12/10 02:08:55;;;;;;;1.53;0.80;;;9.80;49.90;;;;;;10441872;28;20221;-79
2023/12/10 02:14:00;;;;;;;2.67;0.90;;;9.80;49.60;;;;;;10450667;28;20301;-79
2023/12/10 02:19:04;;;;;;;2.90;0.90;;;9.70;49.80;;;;;;10441322;28;20590;-79
2023/12/10 02:24:10;;;;;;;2.80;0.90;;;9.60;49.80;;;;;;10435295;28;20243;-79
2023/12/10 02:29:15;;;;;;;2.23;1.00;;;9.60;50.10;;;;;;10441023;28;20229;-79
2023/12/10 02:34:18;;;;;;;1.97;1.00;;;9.60;50.20;;;;;;10443552;28;20232;-79
2023/12/10 02:39:22;;;;;;;3.57;1.10;;;9.60;50.20;;;;;;10437709;28;20239;-79
2023/12/10 02:44:27;;;;;;;2.17;1.00;;;9.60;50.30;;;;;;10440553;28;20316;-78
2023/12/10 02:49:30;;;;;;;4.27;1.10;;;9.60;50.40;;;;;;10428119;28;20339;-78
2023/12/10 02:54:34;;;;;;;2.30;1.07;;;9.70;50.30;;;;;;10435487;28;20229;-77
2023/12/10 02:59:38;;;;;;;4.40;1.10;;;9.70;50.30;;;;;;10428231;28;20225;-78
2023/12/10 03:04:42;;;;;;;2.23;1.03;;;9.70;50.30;;;;;;10435193;28;20229;-78
2023/12/10 03:09:45;;;;;;;4.60;1.10;;;9.70;50.40;;;;;;10440873;28;20298;-77
2023/12/10 03:14:50;;;;;;;2.47;1.10;;;9.70;50.20;;;;;;10440539;28;20317;-77
2023/12/10 03:19:53;;;;;;;2.27;1.10;;;9.70;50.30;;;;;;10436937;28;20320;-77
2023/12/10 03:24:56;;;;;;;3.50;1.10;;;9.70;50.30;;;;;;10439403;28;20320;-77
2023/12/10 03:30:08;;;;;;;3.27;1.20;;;9.70;50.10;;;;;;10441648;28;20229;-77
2023/12/10 03:35:11;;;;;;;2.63;1.33;;;9.80;50.10;;;;;;10441567;28;20610;-79
2023/12/10 03:40:14;;;;;;;3.67;1.30;;;9.80;49.80;;;;;;10447764;28;20304;-78
2023/12/10 03:45:19;;;;;;;4.63;1.40;;;9.80;49.80;;;;;;10442171;28;20695;-78
2023/12/10 03:50:23;;;;;;;4.97;1.40;;;9.80;49.70;;;;;;10438073;28;20305;-78
2023/12/10 03:55:26;;;;;;;5.80;1.80;;;9.80;49.60;;;;;;10445317;28;20228;-78
2023/12/10 04:00:31;;;;;;;5.13;1.63;;;9.80;49.50;;;;;;10437692;28;20308;-78
2023/12/10 04:05:35;;;;;;;5.97;1.63;;;9.80;49.50;;;;;;10438914;28;20328;-78
2023/12/10 04:10:38;;;;;;;5.73;1.73;;;9.80;49.60;;;;;;10443367;28;20248;-78
2023/12/10 04:15:44;;;;;;;5.23;1.67;;;9.70;49.50;;;;;;10438774;28;20228;-78
2023/12/10 04:20:47;;;;;;;7.80;1.80;;;9.80;49.60;;;;;;10439821;28;20228;-79
2023/12/10 04:25:51;;;;;;;4.87;1.40;;;9.70;49.50;;;;;;10434566;28;20239;-78
2023/12/10 04:30:56;;;;;;;4.87;1.70;;;9.70;49.60;;;;;;10432549;28;20232;-78
2023/12/10 04:35:59;;;;;;;4.87;1.57;;;9.80;49.70;;;;;;10440454;28;20666;-78
2023/12/10 04:41:03;;;;;;;5.93;1.70;;;9.70;49.50;;;;;;10433910;28;20907;-78
2023/12/10 04:46:08;;;;;;;6.90;1.73;;;9.80;49.40;;;;;;10434821;28;20292;-78
2023/12/10 04:51:13;;;;;;;6.20;1.73;;;9.80;49.40;;;;;;10439347;28;20237;-78
2023/12/10 04:56:16;;;;;;;7.03;1.53;;;9.80;49.50;;;;;;10438120;28;20399;-77
2023/12/10 05:01:20;;;;;;;5.07;1.70;;;9.70;49.40;;;;;;10435545;28;20231;-77
2023/12/10 05:06:24;;;;;;;4.23;1.50;;;9.70;49.20;;;;;;10427204;28;20669;-77
2023/12/10 05:11:27;;;;;;;5.57;2.30;;;9.70;48.40;;;;;;10427821;28;20312;-77
2023/12/10 05:16:32;;;;;;;4.47;2.03;;;9.60;47.80;;;;;;10429958;28;20233;-77
2023/12/10 05:21:35;;;;;;;4.20;1.50;;;9.40;47.50;;;;;;10429209;28;20263;-77
2023/12/10 05:26:39;;;;;;;2.47;1.20;;;9.30;47.60;;;;;;10440569;28;20879;-77
2023/12/10 05:31:44;;;;;;;3.23;1.10;;;9.20;47.60;;;;;;10428939;28;20225;-77
2023/12/10 05:36:47;;;;;;;3.27;1.30;;;9.00;47.70;;;;;;10435304;28;20606;-77
2023/12/10 05:41:51;;;;;;;1.80;1.10;;;8.90;47.80;;;;;;10432042;28;20332;-78
2023/12/10 05:46:56;;;;;;;3.10;1.13;;;8.80;48.70;;;;;;10436409;28;20237;-77
2023/12/10 05:51:59;;;;;;;3.93;1.33;;;8.70;48.20;;;;;;10437178;28;20279;-77
2023/12/10 05:57:03;;;;;;;2.83;1.10;;;8.60;48.40;;;;;;10438128;28;20247;-78
2023/12/10 06:02:07;;;;;;;5.00;1.13;;;8.60;48.70;;;;;;10439795;28;20229;-77
2023/12/10 06:07:10;;;;;;;5.33;1.40;;;8.60;49.00;;;;;;10429267;28;20229;-77
2023/12/10 06:12:14;;;;;;;6.17;1.70;;;8.60;49.00;;;;;;10438822;28;20672;-77
2023/12/10 06:17:19;;;;;;;5.60;1.50;;;8.60;49.00;;;;;;10438124;28;20243;-77
2023/12/10 06:22:22;;;;;;;3.43;1.37;;;8.60;48.90;;;;;;10438724;28;20239;-77
2023/12/10 06:27:25;;;;;;;5.57;1.70;;;8.60;49.00;;;;;;10432674;28;20233;-77
2023/12/10 06:32:30;;;;;;;5.73;1.80;;;8.60;49.10;;;;;;10427339;28;20249;-77
2023/12/10 06:37:34;;;;;;;5.50;2.07;;;8.60;49.20;;;;;;10425273;28;20232;-77
2023/12/10 06:42:37;;;;;;;6.77;2.70;;;8.60;49.20;;;;;;10430606;28;20312;-77
2023/12/10 06:47:42;;;;;;;3.83;1.73;;;8.60;49.20;;;;;;10436474;28;20229;-75
2023/12/10 06:52:45;;;;;;;5.30;1.97;;;8.60;49.10;;;;;;10435351;28;20886;-75
2023/12/10 06:57:49;;;;;;;5.67;2.00;;;8.70;49.10;;;;;;10440286;28;20243;-75
2023/12/10 07:02:53;;;;;;;8.47;2.30;;;8.70;49.10;;;;;;10438389;28;20252;-75
2023/12/10 07:07:57;;;;;;;7.30;2.77;;;8.70;49.00;;;;;;10430117;28;20264;-76
2023/12/10 07:13:00;;;;;;;7.07;2.20;;;8.80;49.10;;;;;;10440992;28;20328;-76
2023/12/10 07:18:05;;;;;;;9.17;2.50;;;8.80;48.90;;;;;;10441372;28;20372;-76
2023/12/10 07:23:09;;;;;;;9.70;2.60;;;8.80;48.80;;;;;;10439814;28;20225;-76
2023/12/10 07:28:13;;;;;;;7.27;1.90;;;8.80;48.80;;;;;;10435184;28;20243;-76
2023/12/10 07:33:17;;;;;;;6.27;2.57;;;8.90;48.70;;;;;;10439803;28;20329;-76
2023/12/10 07:38:22;;;;;;;6.20;2.00;;;9.00;48.60;;;;;;10434928;28;20235;-76
2023/12/10 07:43:25;;;;;;;6.97;2.37;;;9.00;48.60;;;;;;10434513;28;20296;-76
2023/12/10 07:48:29;;;;;;;11.23;2.70;;;9.10;48.60;;;;;;10442923;28;20241;-77
2023/12/10 07:53:33;;;;;;;7.73;2.20;;;9.20;48.40;;;;;;10438573;28;20225;-76
2023/12/10 07:58:36;;;;;;;6.83;2.63;;;9.20;48.30;;;;;;10441881;28;20240;-76
2023/12/10 08:03:41;;;;;;;12.07;3.27;;;9.30;48.30;;;;;;10442492;28;20235;-76
2023/12/10 08:08:45;;;;;;;10.87;2.70;;;9.30;47.80;;;;;;10445128;28;20260;-76
2023/12/10 08:13:51;;;;;;;8.17;2.50;;;9.40;47.90;;;;;;10442146;28;21081;-78
2023/12/10 08:18:57;;;;;;;7.50;2.50;;;9.40;47.80;;;;;;10423773;28;20221;-78
2023/12/10 08:24:00;;;;;;;7.57;2.43;;;9.40;47.40;;;;;;10432119;28;20236;-79
2023/12/10 08:29:03;;;;;;;11.57;2.80;;;9.50;47.60;;;;;;10425119;28;20232;-79
2023/12/10 08:34:08;;;;;;;8.90;2.70;;;9.50;47.70;;;;;;10433943;28;20592;-78
2023/12/10 08:39:12;;;;;;;8.57;2.43;;;9.60;47.30;;;;;;10429447;28;20230;-79
2023/12/10 08:44:15;;;;;;;6.00;2.30;;;9.60;47.40;;;;;;10428911;28;20891;-80
2023/12/10 08:49:20;;;;;;;7.67;2.30;;;9.60;47.20;;;;;;10422146;28;20232;-77
2023/12/10 08:54:25;;;;;;;7.73;2.70;;;9.60;46.90;;;;;;10426114;28;20243;-77
2023/12/10 08:59:28;;;;;;;9.07;2.43;;;9.70;47.10;;;;;;10420386;28;20233;-77
2023/12/10 09:04:32;;;;;;;9.43;2.57;;;9.70;47.20;;;;;;10426449;28;20240;-78
2023/12/10 09:09:36;;;;;;;7.30;2.57;;;9.70;46.90;;;;;;10425181;28;20501;-78
2023/12/10 09:14:39;;;;;;;11.10;2.73;;;9.80;47.30;;;;;;10420186;28;20240;-78
2023/12/10 09:19:44;;;;;;;8.17;2.87;;;9.80;47.10;;;;;;10425381;28;20278;-78
2023/12/10 09:24:47;;;;;;;8.87;2.87;;;9.80;46.70;;;;;;10422674;28;20543;-78
2023/12/10 09:29:53;;;;;;;9.57;2.60;;;9.80;46.90;;;;;;10419434;28;20269;-79
2023/12/10 09:34:57;;;;;;;7.57;2.43;;;9.90;47.00;;;;;;10420481;28;20248;-80
2023/12/10 09:40:01;;;;;;;10.00;3.43;;;9.90;46.70;;;;;;10423294;28;20240;-75
2023/12/10 09:45:05;;;;;;;6.97;2.57;;;10.00;45.90;;;;;;10417062;28;20237;-76
2023/12/10 09:50:10;;;;;;;7.70;2.67;;;10.00;45.90;;;;;;10420207;28;20424;-77
2023/12/10 09:55:14;;;;;;;10.53;2.60;;;10.10;45.30;;;;;;10407765;28;20299;-78
2023/12/10 10:00:18;;;;;;;11.37;3.43;;;10.20;45.80;;;;;;10426545;28;20305;-79
2023/12/10 10:05:23;;;;;;;9.23;4.17;;;10.20;45.50;;;;;;10417866;28;20666;-74
2023/12/10 10:10:27;;;;;;;7.57;2.90;;;10.20;45.30;;;;;;10405532;28;20960;-74
2023/12/10 10:15:31;;;;;;;9.20;2.63;;;10.20;45.60;;;;;;10418289;28;20806;-76
2023/12/10 10:20:35;;;;;;;7.67;3.00;;;10.30;45.60;;;;;;10411259;28;20270;-76
2023/12/10 10:25:40;;;;;;;8.90;2.77;;;10.30;45.10;;;;;;10405570;28;21204;-75
2023/12/10 10:30:44;;;;;;;7.73;2.70;;;10.40;45.40;;;;;;10410098;28;20891;-76
2023/12/10 10:35:49;;;;;;;8.80;2.30;;;10.50;45.50;;;;;;10406352;28;20291;-76
2023/12/10 10:40:53;;;;;;;9.20;3.17;;;10.50;45.10;;;;;;10415647;28;20266;-75
2023/12/10 10:45:57;;;;;;;8.97;2.33;;;10.50;45.40;;;;;;10412298;28;20240;-75
2023/12/10 10:51:02;;;;;;;8.60;2.80;;;10.50;45.10;;;;;;10438189;28;20232;-77
2023/12/10 10:56:07;;;;;;;6.57;2.33;;;10.60;45.00;;;;;;10428781;28;20312;-78
2023/12/10 11:01:37;;;;;;;8.13;2.60;;;10.60;44.80;;;;;;10454117;28;20296;-79
2023/12/10 11:06:42;;;;;;;6.80;2.57;;;10.60;44.00;;;;;;10456539;28;20239;-78
2023/12/10 11:11:46;;;;;;;6.10;1.90;;;10.70;44.60;;;;;;10453966;28;20286;-78
2023/12/10 11:16:58;;;;;;;8.23;2.00;;;10.70;44.80;;;;;;10453698;28;20261;-78
2023/12/10 11:22:03;;;;;;;5.60;2.40;;;10.80;44.10;;;;;;10453700;28;20260;-78
2023/12/10 11:27:12;;;;;;;6.20;2.30;;;10.90;44.80;;;;;;10451670;28;20283;-79
2023/12/10 11:32:15;;;;;;;7.27;2.23;;;10.90;43.90;;;;;;10460259;28;20229;-78
2023/12/10 11:37:20;;;;;;;6.20;1.80;;;10.90;44.60;;;;;;10446444;28;20226;-79
2023/12/10 11:42:23;;;;;;;7.87;2.23;;;11.00;44.10;;;;;;10458267;28;20229;-78
2023/12/10 11:47:27;;;;;;;7.10;2.17;;;11.10;44.40;;;;;;10456418;28;20233;-78
2023/12/10 11:52:32;;;;;;;8.47;2.00;;;11.10;44.40;;;;;;10454130;28;20726;-78
2023/12/10 11:57:42;;;;;;;4.80;1.93;;;11.20;43.90;;;;;;10459163;28;20311;-77
2023/12/10 12:02:47;;;;;;;12.27;8.17;;;11.20;43.00;;;;;;10454515;28;20229;-77
2023/12/10 12:07:52;;;;;;;7.43;2.60;;;11.20;43.70;;;;;;10455649;28;20727;-77
2023/12/10 12:12:55;;;;;;;4.30;1.90;;;11.20;43.50;;;;;;10449453;28;20329;-77
2023/12/10 12:17:59;;;;;;;6.57;2.00;;;11.30;43.80;;;;;;10455863;28;20310;-77
2023/12/10 12:23:04;;;;;;;5.13;2.30;;;11.20;43.60;;;;;;10447807;28;20232;-76
2023/12/10 12:28:07;;;;;;;6.27;2.60;;;11.20;43.60;;;;;;10431396;28;20234;-76
2023/12/10 12:33:11;;;;;;;5.83;2.00;;;11.20;43.80;;;;;;10439382;28;20321;-76
2023/12/10 12:38:16;;;;;;;6.97;2.27;;;11.30;43.80;;;;;;10434781;28;20337;-77
2023/12/10 12:43:19;;;;;;;7.17;2.30;;;11.20;43.30;;;;;;10433468;28;20231;-76
2023/12/10 12:48:23;;;;;;;4.23;2.10;;;11.20;43.70;;;;;;10436422;28;20260;-76
2023/12/10 12:53:28;;;;;;;5.17;2.23;;;11.20;43.70;;;;;;10437008;28;20287;-76
2023/12/10 12:58:34;;;;;;;7.23;2.20;;;11.30;43.20;;;;;;10433549;28;20256;-79
2023/12/10 13:03:37;;;;;;;4.47;2.00;;;11.30;42.70;;;;;;10441361;28;20300;-78
2023/12/10 13:08:42;;;;;;;9.30;2.10;;;11.30;43.30;;;;;;10432505;28;20316;-78
2023/12/10 13:13:45;;;;;;;6.33;2.03;;;11.40;42.90;;;;;;10430031;28;20267;-79
2023/12/10 13:18:48;;;;;;;6.40;2.10;;;11.40;43.10;;;;;;10432170;28;20229;-78
2023/12/10 13:23:53;;;;;;;4.50;1.87;;;11.40;43.20;;;;;;10432968;28;20298;-77
2023/12/10 13:28:57;;;;;;;6.83;2.17;;;11.50;42.60;;;;;;10430204;28;20244;-79
2023/12/10 13:34:00;;;;;;;4.37;1.70;;;11.50;43.00;;;;;;10431798;28;20600;-80
2023/12/10 13:39:05;;;;;;;6.27;2.50;;;11.50;42.90;;;;;;10435339;28;20712;-80
2023/12/10 13:44:08;;;;;;;4.70;1.53;;;11.50;42.50;;;;;;10441735;28;20251;-80
2023/12/10 13:49:12;;;;;;;3.70;1.70;;;11.60;42.90;;;;;;10443971;28;20225;-81
2023/12/10 13:54:17;;;;;;;6.30;1.90;;;11.60;43.00;;;;;;10440040;28;20631;-81
2023/12/10 13:59:21;;;;;;;6.30;1.80;;;11.70;42.50;;;;;;10448016;28;20253;-81
2023/12/10 14:04:25;;;;;;;7.00;1.87;;;11.70;42.80;;;;;;10439782;28;20229;-81
2023/12/10 14:09:29;;;;;;;5.57;1.77;;;11.70;42.70;;;;;;10449234;28;20236;-81
2023/12/10 14:14:33;;;;;;;3.30;1.50;;;11.60;42.30;;;;;;10437981;28;20301;-80
2023/12/10 14:19:36;;;;;;;4.63;1.77;;;11.60;42.60;;;;;;10436282;28;20228;-80
2023/12/10 14:24:41;;;;;;;23.37;11.23;;;11.60;42.50;;;;;;10440726;28;20266;-80
2023/12/10 14:29:44;;;;;;;8.43;3.00;;;11.60;42.10;;;;;;10437141;28;20229;-80
2023/12/10 14:34:47;;;;;;;6.67;2.73;;;11.50;42.00;;;;;;10443507;28;20288;-80
2023/12/10 14:39:52;;;;;;;4.70;2.30;;;11.50;42.50;;;;;;10443280;28;20229;-80
2023/12/10 14:44:56;;;;;;;3.93;3.03;;;11.40;42.10;;;;;;10434290;28;20237;-81
2023/12/10 14:50:00;;;;;;;5.77;2.73;;;11.40;42.50;;;;;;10441620;28;20868;-80
2023/12/10 14:55:06;;;;;;;5.93;3.47;;;11.30;42.50;;;;;;10437560;28;20236;-79
2023/12/10 15:00:10;;;;;;;5.77;2.27;;;11.20;42.00;;;;;;10429418;28;20235;-79
2023/12/10 15:05:15;;;;;;;4.13;2.00;;;11.20;42.20;;;;;;10431876;28;20806;-79
2023/12/10 15:10:20;;;;;;;5.97;2.50;;;11.10;42.30;;;;;;10439270;28;20742;-81
2023/12/10 15:15:23;;;;;;;4.87;2.77;;;11.10;42.40;;;;;;10445668;28;20256;-80
2023/12/10 15:20:26;;;;;;;4.77;2.57;;;11.00;42.50;;;;;;10443853;28;20251;-80
2023/12/10 15:25:31;;;;;;;5.53;2.50;;;11.00;42.60;;;;;;10440109;28;20683;-80
2023/12/10 15:30:35;;;;;;;6.33;2.20;;;10.90;42.30;;;;;;10444323;28;20256;-80
2023/12/10 15:35:39;;;;;;;6.63;2.10;;;10.90;42.70;;;;;;10440381;28;20891;-80
2023/12/10 15:40:44;;;;;;;6.17;2.20;;;10.90;42.70;;;;;;10444025;28;20279;-79
2023/12/10 15:45:47;;;;;;;5.17;2.00;;;10.80;42.60;;;;;;10440906;28;20762;-80
2023/12/10 15:50:51;;;;;;;6.90;1.97;;;10.80;42.90;;;;;;10442223;28;20233;-80
2023/12/10 15:55:56;;;;;;;6.30;2.20;;;10.80;42.80;;;;;;10449393;28;20232;-80
2023/12/10 16:00:59;;;;;;;6.07;2.20;;;10.80;42.80;;;;;;10435104;28;20312;-79
2023/12/10 16:06:03;;;;;;;11.23;2.97;;;10.70;42.90;;;;;;10416143;28;20777;-79
2023/12/10 16:11:07;;;;;;;6.00;2.10;;;10.80;43.10;;;;;;10418678;28;20766;-80
2023/12/10 16:16:11;;;;;;;8.03;2.57;;;10.80;42.90;;;;;;10420357;28;20233;-78
2023/12/10 16:21:14;;;;;;;6.00;2.50;;;10.70;43.00;;;;;;10414917;28;20231;-79
2023/12/10 16:26:20;;;;;;;7.00;3.00;;;10.80;43.00;;;;;;10415274;28;20316;-77
2023/12/10 16:31:24;;;;;;;12.43;4.87;;;10.80;42.90;;;;;;10418574;28;20763;-79
2023/12/10 16:36:27;;;;;;;10.80;4.97;;;10.80;43.00;;;;;;10423659;28;20244;-79
2023/12/10 16:41:31;;;;;;;10.77;6.17;;;10.80;43.00;;;;;;10411310;28;20318;-79
2023/12/10 16:46:36;;;;;;;7.23;3.73;;;10.80;42.70;;;;;;10416549;28;20237;-80
2023/12/10 16:51:41;;;;;;;9.93;4.27;;;10.80;42.70;;;;;;10421555;28;20913;-79
2023/12/10 16:56:46;;;;;;;10.67;5.70;;;10.80;42.90;;;;;;10422581;28;20303;-80
2023/12/10 17:01:51;;;;;;;17.20;8.93;;;10.90;42.70;;;;;;10422995;28;20582;-78
2023/12/10 17:06:54;;;;;;;10.57;6.63;;;10.90;42.80;;;;;;10418406;28;20236;-80
2023/12/10 17:11:59;;;;;;;12.87;7.93;;;10.90;42.70;;;;;;10418748;28;20236;-81
2023/12/10 17:17:02;;;;;;;13.13;6.97;;;10.90;42.60;;;;;;10419251;28;20657;-80
2023/12/10 17:22:06;;;;;;;10.47;4.53;;;10.80;43.40;;;;;;10422937;28;20256;-80
2023/12/10 17:27:11;;;;;;;9.23;3.93;;;10.80;42.70;;;;;;10419485;28;20626;-81
2023/12/10 17:32:14;;;;;;;8.90;5.10;;;10.70;42.50;;;;;;10420476;28;20232;-80
2023/12/10 17:37:17;;;;;;;49.30;41.83;;;10.80;42.70;;;;;;10426912;28;20253;-80
2023/12/10 17:42:22;;;;;;;47.30;36.53;;;10.70;42.50;;;;;;10427536;28;20992;-80
2023/12/10 17:47:25;;;;;;;20.77;16.40;;;10.80;42.30;;;;;;10419641;28;20838;-81
2023/12/10 17:52:29;;;;;;;14.83;11.13;;;10.70;42.20;;;;;;10422448;28;20249;-80
2023/12/10 17:57:34;;;;;;;17.83;14.43;;;10.60;42.20;;;;;;10425033;28;20241;-81
2023/12/10 18:02:37;;;;;;;9.83;5.90;;;10.60;42.10;;;;;;10425514;28;20229;-81
2023/12/10 18:07:41;;;;;;;9.03;5.30;;;10.50;42.40;;;;;;10416830;28;20250;-81
2023/12/10 18:12:45;;;;;;;7.57;4.10;;;10.40;42.30;;;;;;10425860;28;20243;-80
2023/12/10 18:17:49;;;;;;;6.70;4.00;;;10.40;42.30;;;;;;10425956;28;20245;-81
2023/12/10 18:22:52;;;;;;;10.50;6.90;;;10.40;42.40;;;;;;10422099;28;20237;-81
2023/12/10 18:27:57;;;;;;;11.23;7.13;;;10.40;42.20;;;;;;10421705;28;20268;-80
2023/12/10 18:33:00;;;;;;;9.23;5.20;;;10.40;42.00;;;;;;10421336;28;20267;-80
2023/12/10 18:38:04;;;;;;;11.63;5.37;;;10.40;41.90;;;;;;10424309;28;20488;-80
2023/12/10 18:43:08;;;;;;;51.70;23.53;;;10.30;41.90;;;;;;10422602;28;20812;-80
2023/12/10 18:48:11;;;;;;;16.97;10.80;;;10.30;42.60;;;;;;10424839;28;20237;-80
2023/12/10 18:53:15;;;;;;;12.50;7.33;;;10.20;42.10;;;;;;10425252;28;20324;-81
2023/12/10 18:58:20;;;;;;;11.17;5.63;;;10.10;42.70;;;;;;10419189;28;20838;-80
2023/12/10 19:03:23;;;;;;;17.30;13.47;;;10.00;41.90;;;;;;10424667;28;20232;-80
2023/12/10 19:08:27;;;;;;;31.13;28.23;;;10.00;42.00;;;;;;10423321;28;20232;-80
2023/12/10 19:13:31;;;;;;;23.97;21.63;;;9.90;42.80;;;;;;10426045;28;20825;-80
2023/12/10 19:18:35;;;;;;;24.57;21.93;;;9.80;42.80;;;;;;10421158;28;20760;-80
2023/12/10 19:23:38;;;;;;;10.50;8.43;;;9.80;43.00;;;;;;10423490;28;20936;-80
2023/12/10 19:28:43;;;;;;;8.93;6.93;;;9.80;42.90;;;;;;10422137;28;20255;-80
2023/12/10 19:33:46;;;;;;;9.30;5.27;;;9.70;42.60;;;;;;10427039;28;20241;-80
2023/12/10 19:38:50;;;;;;;6.00;4.10;;;9.70;42.80;;;;;;10426436;28;20743;-80
2023/12/10 19:43:54;;;;;;;10.53;5.07;;;9.60;42.80;;;;;;10423452;28;20254;-80
2023/12/10 19:48:58;;;;;;;8.60;4.77;;;9.50;42.60;;;;;;10423078;28;20236;-80
2023/12/10 19:54:01;;;;;;;8.23;4.73;;;9.40;42.80;;;;;;10425701;28;21148;-78
2023/12/10 19:59:06;;;;;;;8.70;5.00;;;9.40;43.10;;;;;;10421915;28;21099;-79
2023/12/10 20:04:09;;;;;;;10.77;5.53;;;9.40;42.90;;;;;;10423926;28;20228;-77
2023/12/10 20:09:13;;;;;;;8.03;4.90;;;9.40;43.00;;;;;;10416503;28;20292;-78
2023/12/10 20:14:18;;;;;;;8.10;4.50;;;9.40;43.00;;;;;;10414440;28;20320;-79
2023/12/10 20:19:21;;;;;;;6.37;3.40;;;9.40;42.90;;;;;;10413969;28;20222;-79
2023/12/10 20:24:25;;;;;;;5.60;3.03;;;9.40;42.80;;;;;;10411694;28;20765;-79
2023/12/10 20:29:43;;;;;;;4.00;2.70;;;9.50;42.80;;;;;;10409246;28;20260;-80
2023/12/10 20:34:46;;;;;;;6.27;2.90;;;9.50;42.10;;;;;;10432051;28;20320;-78
2023/12/10 20:39:50;;;;;;;5.10;3.13;;;9.50;42.40;;;;;;10443466;28;20233;-80
2023/12/10 20:44:55;;;;;;;5.93;3.43;;;9.50;42.50;;;;;;10443303;28;20314;-79
2023/12/10 20:49:58;;;;;;;5.83;2.67;;;9.60;42.00;;;;;;10441817;28;20287;-76
2023/12/10 20:55:02;;;;;;;4.57;2.50;;;9.60;42.20;;;;;;10437193;28;20233;-78
2023/12/10 21:00:09;;;;;;;4.83;2.40;;;9.70;42.10;;;;;;10434527;28;20248;-78
2023/12/10 21:05:13;;;;;;;6.03;3.00;;;9.70;41.40;;;;;;10422527;28;20315;-79
2023/12/10 21:10:17;;;;;;;5.00;2.70;;;9.70;41.80;;;;;;10428642;28;20230;-79
2023/12/10 21:15:21;;;;;;;4.80;2.90;;;9.70;41.80;;;;;;10423514;28;20236;-79
2023/12/10 21:20:25;;;;;;;4.93;2.77;;;9.70;41.70;;;;;;10427397;28;20320;-79
2023/12/10 21:25:29;;;;;;;5.37;2.57;;;9.70;42.60;;;;;;10424115;28;20332;-79
2023/12/10 21:30:34;;;;;;;2.73;1.70;;;9.60;41.50;;;;;;10427360;28;20297;-78
2023/12/10 21:35:38;;;;;;;3.07;1.50;;;9.80;41.40;;;;;;10420073;28;20233;-79
2023/12/10 21:40:41;;;;;;;2.03;1.10;;;10.00;41.90;;;;;;10424556;28;20319;-79
2023/12/10 21:45:45;;;;;;;1.07;0.93;;;10.30;40.80;;;;;;10428205;28;20260;-79
2023/12/10 21:50:49;;;;;;;1.80;1.00;;;10.60;40.50;;;;;;10427690;28;20252;-79
2023/12/10 21:55:53;;;;;;;1.73;1.37;;;10.90;40.70;;;;;;10432509;28;20310;-79
2023/12/10 22:00:58;;;;;;;1.87;1.30;;;11.10;40.50;;;;;;10428944;28;20317;-79
2023/12/10 22:06:01;;;;;;;3.83;1.27;;;11.20;39.70;;;;;;10421341;28;20248;-79
2023/12/10 22:11:06;;;;;;;1.67;1.20;;;11.20;39.80;;;;;;10424909;28;20343;-79
2023/12/10 22:16:11;;;;;;;1.93;1.40;;;11.30;40.00;;;;;;10427710;28;20238;-79
2023/12/10 22:21:15;;;;;;;2.00;1.53;;;11.40;39.20;;;;;;10418735;28;20229;-79
2023/12/10 22:26:18;;;;;;;1.63;1.50;;;11.50;40.00;;;;;;10397848;28;20336;-75
2023/12/10 22:31:23;;;;;;;1.40;1.30;;;11.40;39.60;;;;;;10418263;28;20332;-76
2023/12/10 22:36:26;;;;;;;2.57;1.43;;;11.40;38.90;;;;;;10424388;28;20322;-76
2023/12/10 22:41:30;;;;;;;2.67;1.10;;;11.50;39.30;;;;;;10424716;28;20237;-76
2023/12/10 22:46:35;;;;;;;1.17;1.00;;;11.50;39.20;;;;;;10422891;28;20221;-76
2023/12/10 22:51:39;;;;;;;1.23;1.00;;;11.60;38.80;;;;;;10420277;28;20233;-76
2023/12/10 22:56:42;;;;;;;3.80;2.90;;;11.60;39.40;;;;;;10419816;28;20722;-76
2023/12/10 23:01:46;;;;;;;4.27;1.73;;;11.60;39.30;;;;;;10426957;28;20221;-76
2023/12/10 23:06:51;;;;;;;3.77;2.20;;;11.60;38.60;;;;;;10427689;28;20710;-76
2023/12/10 23:11:55;;;;;;;6.70;3.57;;;11.50;38.90;;;;;;10421189;28;20240;-76
2023/12/10 23:16:59;;;;;;;2.97;1.83;;;11.40;38.80;;;;;;10424233;28;20241;-76
2023/12/10 23:22:02;;;;;;;2.97;2.27;;;11.30;38.40;;;;;;10423466;28;20323;-75
2023/12/10 23:27:06;;;;;;;3.37;1.90;;;11.20;38.90;;;;;;10427714;28;20316;-75
2023/12/10 23:32:11;;;;;;;1.30;0.93;;;11.10;39.00;;;;;;10429463;28;20288;-75
2023/12/10 23:37:14;;;;;;;1.13;0.90;;;11.10;39.20;;;;;;10430498;28;20245;-75
2023/12/10 23:42:17;;;;;;;1.43;0.70;;;11.20;40.50;;;;;;10429196;28;20232;-75
2023/12/10 23:47:22;;;;;;;0.77;0.77;;;11.30;41.00;;;;;;10428428;28;20235;-75
2023/12/10 23:52:25;;;;;;;1.23;0.80;;;11.30;41.10;;;;;;10425195;28;20229;-75
2023/12/10 23:57:28;;;;;;;1.20;0.70;;;11.30;41.10;;;;;;10422091;28;20249;-75
